Weather at Chhatrapati Shivaji International Airport

Public forecast

Using degrees Celsius for public forecast. Weather courtesy of forecast.io.

Current aviation weather report (METAR) for Chhatrapati Shivaji International Airport

2024/06/18 11:30 (retrieved 20 minutes ago)

VABB 181130Z 27008G18KT 1600 DZ FEW010 SCT018 FEW030CB BKN090 27/25 Q1005 TEMPO 1500 SHRA

Aviation forecast (TAF) for Chhatrapati Shivaji International Airport

2024/06/18 06:06 (retrieved 6 hours ago)

TAF VABB 180500Z 1806/1912 22010KT 4000 HZ FEW020 SCT025 BKN100 TEMPO 1807/1812 23007G17KT 1500 -TSRA -SHRA SCT018 FEW030TCU CB BKN090 BECMG 1813/1815 19008KT 3500 -DZ HZ BECMG 1821/1823 2500 -DZ BR BECMG 1902/1904 24010KT 3000 -DZ BR FEW020 SCT025 BKN090 TEMPO 1904/1908 26008G18KT 1500 -TSRA -SHRA SCT018 FEW030TCU CB BKN090 BECMG 1909/1911 23010KT 3500 HZ FEW020 SCT025 BKN100